2MA4 weather

Public forecast

Using degrees Fahrenheit for public forecast. Weather courtesy of forecast.io.

Closest aviation weather report (METAR) to Compaq Littleton Heliport

Closest report is Laurence G Hanscom Field, 9.4 nm (17.4 km) ESE. Retrieved 2020/08/15 03:51 UTC (40 minutes ago):

KBED 150351Z AUTO 00000KT 10SM CLR 19/15 A3001 RMK AO2 SLP173 T01890150

Closest aviation forecast (TAF) to Compaq Littleton Heliport

Closest forecast is Laurence G Hanscom Field, 9.4 nm (17.4 km) ESE. Retrieved 2020-08-15 00:22 UTC (4 hours ago):

TAF KBED 142320Z 1500/1524 08007KT P6SM SKC FM151100 03007KT P6SM OVC015 FM151200 03008KT P6SM OVC020 FM151600 05010G22KT P6SM OVC020